sensor_id;sensor_type;location;lat;lon;timestamp;pressure;altitude;pressure_sealevel;temperature;humidity
30081;BME280;16902;50.816;12.828;2023-12-07T00:04:51;97832.84;;;0.34;100.00
30081;BME280;16902;50.816;12.828;2023-12-07T00:09:53;97834.81;;;0.31;100.00
30081;BME280;16902;50.816;12.828;2023-12-07T00:14:55;97830.72;;;0.28;100.00
30081;BME280;16902;50.816;12.828;2023-12-07T00:19:57;97841.44;;;0.33;100.00
30081;BME280;16902;50.816;12.828;2023-12-07T00:24:59;97842.16;;;0.35;100.00
30081;BME280;16902;50.816;12.828;2023-12-07T00:30:01;97837.84;;;0.36;100.00
30081;BME280;16902;50.816;12.828;2023-12-07T00:35:03;97838.19;;;0.31;100.00
30081;BME280;16902;50.816;12.828;2023-12-07T00:40:05;97834.34;;;0.37;100.00
30081;BME280;16902;50.816;12.828;2023-12-07T00:45:11;97843.66;;;0.38;100.00
30081;BME280;16902;50.816;12.828;2023-12-07T00:50:13;97848.91;;;0.36;100.00
30081;BME280;16902;50.816;12.828;2023-12-07T00:55:16;97847.88;;;0.39;100.00
30081;BME280;16902;50.816;12.828;2023-12-07T01:00:18;97860.56;;;0.40;100.00
30081;BME280;16902;50.816;12.828;2023-12-07T01:05:20;97867.53;;;0.38;100.00
30081;BME280;16902;50.816;12.828;2023-12-07T01:10:22;97872.66;;;0.38;100.00
30081;BME280;16902;50.816;12.828;2023-12-07T01:15:24;97880.13;;;0.41;100.00
30081;BME280;16902;50.816;12.828;2023-12-07T01:20:26;97888.72;;;0.40;100.00
30081;BME280;16902;50.816;12.828;2023-12-07T01:25:29;97877.56;;;0.41;100.00
30081;BME280;16902;50.816;12.828;2023-12-07T01:30:31;97899.31;;;0.47;100.00
30081;BME280;16902;50.816;12.828;2023-12-07T01:35:33;97899.56;;;0.44;100.00
30081;BME280;16902;50.816;12.828;2023-12-07T01:40:35;97906.31;;;0.45;100.00
30081;BME280;16902;50.816;12.828;2023-12-07T01:45:37;97902.50;;;0.50;100.00
30081;BME280;16902;50.816;12.828;2023-12-07T01:50:39;97904.00;;;0.53;100.00
30081;BME280;16902;50.816;12.828;2023-12-07T01:55:41;97910.78;;;0.54;100.00
30081;BME280;16902;50.816;12.828;2023-12-07T02:00:44;97915.16;;;0.52;100.00
30081;BME280;16902;50.816;12.828;2023-12-07T02:05:48;97906.34;;;0.56;100.00
30081;BME280;16902;50.816;12.828;2023-12-07T02:10:50;97911.00;;;0.62;100.00
30081;BME280;16902;50.816;12.828;2023-12-07T02:15:55;97924.63;;;0.63;100.00
30081;BME280;16902;50.816;12.828;2023-12-07T02:21:04;97921.50;;;0.59;100.00
30081;BME280;16902;50.816;12.828;2023-12-07T02:26:10;97929.06;;;0.61;100.00
30081;BME280;16902;50.816;12.828;2023-12-07T02:31:13;97934.19;;;0.61;100.00
30081;BME280;16902;50.816;12.828;2023-12-07T02:36:18;97931.75;;;0.59;100.00
30081;BME280;16902;50.816;12.828;2023-12-07T02:41:22;97931.84;;;0.58;100.00
30081;BME280;16902;50.816;12.828;2023-12-07T02:46:25;97934.19;;;0.61;100.00
30081;BME280;16902;50.816;12.828;2023-12-07T02:51:27;97945.84;;;0.65;100.00
30081;BME280;16902;50.816;12.828;2023-12-07T02:56:29;97952.81;;;0.63;100.00
30081;BME280;16902;50.816;12.828;2023-12-07T03:01:31;97956.22;;;0.63;100.00
30081;BME280;16902;50.816;12.828;2023-12-07T03:06:33;97953.66;;;0.63;100.00
30081;BME280;16902;50.816;12.828;2023-12-07T03:11:35;97955.50;;;0.61;100.00
30081;BME280;16902;50.816;12.828;2023-12-07T03:16:38;97963.19;;;0.61;100.00
30081;BME280;16902;50.816;12.828;2023-12-07T03:21:41;97963.91;;;0.63;100.00
30081;BME280;16902;50.816;12.828;2023-12-07T03:26:44;97963.97;;;0.62;100.00
30081;BME280;16902;50.816;12.828;2023-12-07T03:31:46;97964.91;;;0.61;100.00
30081;BME280;16902;50.816;12.828;2023-12-07T03:36:48;97959.59;;;0.64;100.00
30081;BME280;16902;50.816;12.828;2023-12-07T03:41:50;97959.69;;;0.62;100.00
30081;BME280;16902;50.816;12.828;2023-12-07T03:46:52;97964.78;;;0.62;100.00
30081;BME280;16902;50.816;12.828;2023-12-07T03:51:55;97973.41;;;0.61;100.00
30081;BME280;16902;50.816;12.828;2023-12-07T03:56:56;97973.53;;;0.60;100.00
30081;BME280;16902;50.816;12.828;2023-12-07T04:01:58;97993.72;;;0.64;100.00
30081;BME280;16902;50.816;12.828;2023-12-07T04:07:00;97986.09;;;0.63;100.00
30081;BME280;16902;50.816;12.828;2023-12-07T04:12:02;97991.22;;;0.63;100.00
30081;BME280;16902;50.816;12.828;2023-12-07T04:17:04;97980.16;;;0.62;100.00
30081;BME280;16902;50.816;12.828;2023-12-07T04:22:06;97989.72;;;0.60;100.00
30081;BME280;16902;50.816;12.828;2023-12-07T04:27:08;98001.72;;;0.60;100.00
30081;BME280;16902;50.816;12.828;2023-12-07T04:32:10;98002.53;;;0.60;100.00
30081;BME280;16902;50.816;12.828;2023-12-07T04:37:12;97999.28;;;0.58;100.00
30081;BME280;16902;50.816;12.828;2023-12-07T04:42:14;97993.09;;;0.61;100.00
30081;BME280;16902;50.816;12.828;2023-12-07T04:47:16;98009.41;;;0.60;100.00
30081;BME280;16902;50.816;12.828;2023-12-07T04:52:18;98012.78;;;0.60;100.00
30081;BME280;16902;50.816;12.828;2023-12-07T04:57:21;98016.16;;;0.61;100.00
30081;BME280;16902;50.816;12.828;2023-12-07T05:02:23;98020.25;;;0.63;100.00
30081;BME280;16902;50.816;12.828;2023-12-07T05:07:26;98030.44;;;0.52;100.00
30081;BME280;16902;50.816;12.828;2023-12-07T05:12:28;98033.47;;;0.57;100.00
30081;BME280;16902;50.816;12.828;2023-12-07T05:17:30;98032.22;;;0.63;100.00
30081;BME280;16902;50.816;12.828;2023-12-07T05:22:32;98039.66;;;0.55;100.00
30081;BME280;16902;50.816;12.828;2023-12-07T05:27:34;98035.34;;;0.55;100.00
30081;BME280;16902;50.816;12.828;2023-12-07T05:32:36;98036.78;;;0.59;100.00
30081;BME280;16902;50.816;12.828;2023-12-07T05:37:38;98039.53;;;0.56;100.00
30081;BME280;16902;50.816;12.828;2023-12-07T05:42:40;98044.78;;;0.55;100.00
30081;BME280;16902;50.816;12.828;2023-12-07T05:47:42;98047.72;;;0.61;100.00
30081;BME280;16902;50.816;12.828;2023-12-07T05:52:44;98049.47;;;0.61;100.00
30081;BME280;16902;50.816;12.828;2023-12-07T05:57:46;98043.72;;;0.57;100.00
30081;BME280;16902;50.816;12.828;2023-12-07T06:02:48;98052.97;;;0.60;100.00
30081;BME280;16902;50.816;12.828;2023-12-07T06:07:51;98053.16;;;0.57;100.00
30081;BME280;16902;50.816;12.828;2023-12-07T06:12:55;98053.06;;;0.58;100.00
30081;BME280;16902;50.816;12.828;2023-12-07T06:17:58;98058.28;;;0.57;100.00
30081;BME280;16902;50.816;12.828;2023-12-07T06:23:00;98062.47;;;0.58;100.00
30081;BME280;16902;50.816;12.828;2023-12-07T06:28:03;98062.72;;;0.55;100.00
30081;BME280;16902;50.816;12.828;2023-12-07T06:33:05;98068.44;;;0.58;100.00
30081;BME280;16902;50.816;12.828;2023-12-07T06:38:07;98070.59;;;0.51;100.00
30081;BME280;16902;50.816;12.828;2023-12-07T06:43:09;98073.56;;;0.58;100.00
30081;BME280;16902;50.816;12.828;2023-12-07T06:48:11;98074.28;;;0.60;100.00
30081;BME280;16902;50.816;12.828;2023-12-07T06:53:14;98081.03;;;0.61;100.00
30081;BME280;16902;50.816;12.828;2023-12-07T06:58:16;98085.22;;;0.62;100.00
30081;BME280;16902;50.816;12.828;2023-12-07T07:03:18;98085.03;;;0.52;100.00
30081;BME280;16902;50.816;12.828;2023-12-07T07:08:20;98086.47;;;0.57;100.00
30081;BME280;16902;50.816;12.828;2023-12-07T07:13:21;98097.19;;;0.62;100.00
30081;BME280;16902;50.816;12.828;2023-12-07T07:18:26;98093.72;;;0.63;100.00
30081;BME280;16902;50.816;12.828;2023-12-07T07:23:30;98091.25;;;0.61;100.00
30081;BME280;16902;50.816;12.828;2023-12-07T07:28:31;98099.25;;;0.69;100.00
30081;BME280;16902;50.816;12.828;2023-12-07T07:33:34;98109.00;;;0.64;100.00
30081;BME280;16902;50.816;12.828;2023-12-07T07:38:36;98090.41;;;0.73;100.00
30081;BME280;16902;50.816;12.828;2023-12-07T07:43:37;98096.34;;;0.74;100.00
30081;BME280;16902;50.816;12.828;2023-12-07T07:48:39;98097.78;;;0.78;100.00
30081;BME280;16902;50.816;12.828;2023-12-07T07:53:42;98099.59;;;0.76;100.00
30081;BME280;16902;50.816;12.828;2023-12-07T07:58:44;98099.50;;;0.77;100.00
30081;BME280;16902;50.816;12.828;2023-12-07T08:03:46;98101.22;;;0.77;100.00
30081;BME280;16902;50.816;12.828;2023-12-07T08:08:48;98101.34;;;0.75;100.00
30081;BME280;16902;50.816;12.828;2023-12-07T08:13:51;98108.72;;;0.80;100.00
30081;BME280;16902;50.816;12.828;2023-12-07T08:18:54;98114.44;;;0.84;100.00
30081;BME280;16902;50.816;12.828;2023-12-07T08:23:56;98105.63;;;0.88;100.00
30081;BME280;16902;50.816;12.828;2023-12-07T08:28:58;98106.63;;;0.85;100.00
30081;BME280;16902;50.816;12.828;2023-12-07T08:34:00;98112.97;;;0.92;100.00
30081;BME280;16902;50.816;12.828;2023-12-07T08:39:02;98116.91;;;0.96;100.00
30081;BME280;16902;50.816;12.828;2023-12-07T08:44:04;98124.06;;;1.04;100.00
30081;BME280;16902;50.816;12.828;2023-12-07T08:49:07;98127.44;;;1.05;100.00
30081;BME280;16902;50.816;12.828;2023-12-07T08:54:09;98141.16;;;1.16;100.00
30081;BME280;16902;50.816;12.828;2023-12-07T08:59:11;98137.81;;;1.27;100.00
30081;BME280;16902;50.816;12.828;2023-12-07T09:04:13;98149.69;;;1.28;100.00
30081;BME280;16902;50.816;12.828;2023-12-07T09:09:15;98151.16;;;1.19;100.00
30081;BME280;16902;50.816;12.828;2023-12-07T09:14:17;98160.88;;;1.27;100.00
30081;BME280;16902;50.816;12.828;2023-12-07T09:19:22;98161.69;;;1.27;100.00
30081;BME280;16902;50.816;12.828;2023-12-07T09:24:26;98167.28;;;1.21;100.00
30081;BME280;16902;50.816;12.828;2023-12-07T09:29:27;98160.16;;;1.25;100.00
30081;BME280;16902;50.816;12.828;2023-12-07T09:34:29;98165.06;;;1.28;100.00
30081;BME280;16902;50.816;12.828;2023-12-07T09:39:31;98159.81;;;1.29;100.00
30081;BME280;16902;50.816;12.828;2023-12-07T09:44:33;98156.94;;;1.34;100.00
30081;BME280;16902;50.816;12.828;2023-12-07T09:49:35;98153.94;;;1.40;100.00
30081;BME280;16902;50.816;12.828;2023-12-07T09:54:41;98148.81;;;1.40;100.00
30081;BME280;16902;50.816;12.828;2023-12-07T09:59:43;98147.53;;;1.46;100.00
30081;BME280;16902;50.816;12.828;2023-12-07T10:04:45;98147.75;;;1.43;100.00
30081;BME280;16902;50.816;12.828;2023-12-07T10:09:47;98150.66;;;1.38;100.00
30081;BME280;16902;50.816;12.828;2023-12-07T10:14:49;98149.00;;;1.26;100.00
30081;BME280;16902;50.816;12.828;2023-12-07T10:20:12;98148.41;;;1.34;100.00
30081;BME280;16902;50.816;12.828;2023-12-07T10:25:14;98145.41;;;1.40;100.00
30081;BME280;16902;50.816;12.828;2023-12-07T10:30:16;98150.66;;;1.49;100.00
30081;BME280;16902;50.816;12.828;2023-12-07T10:35:19;98149.03;;;1.48;100.00
30081;BME280;16902;50.816;12.828;2023-12-07T10:40:22;98151.06;;;1.56;100.00
30081;BME280;16902;50.816;12.828;2023-12-07T10:45:29;98141.13;;;1.63;100.00
30081;BME280;16902;50.816;12.828;2023-12-07T10:50:35;98144.19;;;1.68;100.00
30081;BME280;16902;50.816;12.828;2023-12-07T10:55:53;98146.16;;;1.64;100.00
30081;BME280;16902;50.816;12.828;2023-12-07T11:00:57;98147.22;;;1.62;100.00
30081;BME280;16902;50.816;12.828;2023-12-07T11:06:01;98140.75;;;1.45;100.00
30081;BME280;16902;50.816;12.828;2023-12-07T11:11:12;98141.72;;;1.55;100.00
30081;BME280;16902;50.816;12.828;2023-12-07T11:16:16;98143.00;;;1.61;100.00
30081;BME280;16902;50.816;12.828;2023-12-07T11:21:18;98138.31;;;1.54;100.00
30081;BME280;16902;50.816;12.828;2023-12-07T11:26:23;98134.25;;;1.63;100.00
30081;BME280;16902;50.816;12.828;2023-12-07T11:31:26;98125.53;;;1.66;100.00
30081;BME280;16902;50.816;12.828;2023-12-07T11:36:29;98131.59;;;1.65;100.00
30081;BME280;16902;50.816;12.828;2023-12-07T11:41:40;98126.91;;;1.59;100.00
30081;BME280;16902;50.816;12.828;2023-12-07T11:46:45;98127.38;;;1.64;100.00
30081;BME280;16902;50.816;12.828;2023-12-07T11:51:48;98129.84;;;1.76;100.00
30081;BME280;16902;50.816;12.828;2023-12-07T11:56:56;98122.50;;;1.83;100.00
30081;BME280;16902;50.816;12.828;2023-12-07T12:01:59;98127.53;;;1.85;100.00
30081;BME280;16902;50.816;12.828;2023-12-07T12:07:01;98124.97;;;1.85;100.00
30081;BME280;16902;50.816;12.828;2023-12-07T12:12:03;98121.25;;;1.89;100.00
30081;BME280;16902;50.816;12.828;2023-12-07T12:17:06;98112.81;;;1.87;100.00
30081;BME280;16902;50.816;12.828;2023-12-07T12:22:08;98113.97;;;1.83;100.00
30081;BME280;16902;50.816;12.828;2023-12-07T12:27:10;98107.81;;;1.85;100.00
30081;BME280;16902;50.816;12.828;2023-12-07T12:32:12;98101.84;;;1.85;100.00
30081;BME280;16902;50.816;12.828;2023-12-07T12:37:14;98099.63;;;2.02;100.00
30081;BME280;16902;50.816;12.828;2023-12-07T12:42:16;98106.28;;;2.05;100.00
30081;BME280;16902;50.816;12.828;2023-12-07T12:47:18;98108.38;;;2.00;100.00
30081;BME280;16902;50.816;12.828;2023-12-07T12:52:23;98101.03;;;1.95;100.00
30081;BME280;16902;50.816;12.828;2023-12-07T12:57:27;98099.16;;;1.97;100.00
30081;BME280;16902;50.816;12.828;2023-12-07T13:02:29;98094.72;;;1.88;100.00
30081;BME280;16902;50.816;12.828;2023-12-07T13:07:31;98093.56;;;2.03;100.00
30081;BME280;16902;50.816;12.828;2023-12-07T13:12:33;98097.75;;;1.93;100.00
30081;BME280;16902;50.816;12.828;2023-12-07T13:17:37;98102.19;;;2.02;100.00
30081;BME280;16902;50.816;12.828;2023-12-07T13:22:41;98101.97;;;1.94;100.00
30081;BME280;16902;50.816;12.828;2023-12-07T13:27:45;98098.69;;;1.92;100.00
30081;BME280;16902;50.816;12.828;2023-12-07T13:32:47;98105.94;;;1.87;100.00
30081;BME280;16902;50.816;12.828;2023-12-07T13:37:49;98104.53;;;1.94;100.00
30081;BME280;16902;50.816;12.828;2023-12-07T13:42:51;98098.00;;;1.90;100.00
30081;BME280;16902;50.816;12.828;2023-12-07T13:47:54;98101.03;;;1.84;100.00
30081;BME280;16902;50.816;12.828;2023-12-07T13:52:55;98097.53;;;1.85;100.00
30081;BME280;16902;50.816;12.828;2023-12-07T13:57:57;98092.16;;;1.88;100.00
30081;BME280;16902;50.816;12.828;2023-12-07T14:03:01;98088.66;;;1.78;100.00
30081;BME280;16902;50.816;12.828;2023-12-07T14:08:03;98089.69;;;1.64;100.00
30081;BME280;16902;50.816;12.828;2023-12-07T14:13:05;98087.94;;;1.53;100.00
30081;BME280;16902;50.816;12.828;2023-12-07T14:18:09;98096.47;;;1.65;100.00
30081;BME280;16902;50.816;12.828;2023-12-07T14:23:12;98097.97;;;1.68;100.00
30081;BME280;16902;50.816;12.828;2023-12-07T14:28:13;98096.22;;;1.68;100.00
30081;BME280;16902;50.816;12.828;2023-12-07T14:33:15;98092.25;;;1.42;100.00
30081;BME280;16902;50.816;12.828;2023-12-07T14:38:17;98086.56;;;1.14;100.00
30081;BME280;16902;50.816;12.828;2023-12-07T14:43:19;98084.31;;;0.98;100.00
30081;BME280;16902;50.816;12.828;2023-12-07T14:48:23;98083.84;;;0.93;100.00
30081;BME280;16902;50.816;12.828;2023-12-07T14:53:25;98078.66;;;0.82;100.00
30081;BME280;16902;50.816;12.828;2023-12-07T14:58:27;98090.78;;;0.80;100.00
30081;BME280;16902;50.816;12.828;2023-12-07T15:03:29;98094.97;;;0.81;100.00
30081;BME280;16902;50.816;12.828;2023-12-07T15:08:31;98090.66;;;0.82;100.00
30081;BME280;16902;50.816;12.828;2023-12-07T15:13:34;98099.25;;;0.69;100.00
30081;BME280;16902;50.816;12.828;2023-12-07T15:18:38;98090.63;;;0.70;100.00
30081;BME280;16902;50.816;12.828;2023-12-07T15:23:43;98088.22;;;0.56;100.00
30081;BME280;16902;50.816;12.828;2023-12-07T15:28:45;98085.31;;;0.61;100.00
30081;BME280;16902;50.816;12.828;2023-12-07T15:33:47;98086.63;;;0.66;100.00
30081;BME280;16902;50.816;12.828;2023-12-07T15:38:49;98075.41;;;0.56;100.00
30081;BME280;16902;50.816;12.828;2023-12-07T15:43:51;98081.59;;;0.54;100.00
30081;BME280;16902;50.816;12.828;2023-12-07T15:48:53;98078.19;;;0.53;100.00
30081;BME280;16902;50.816;12.828;2023-12-07T15:53:56;98072.47;;;0.49;100.00
30081;BME280;16902;50.816;12.828;2023-12-07T15:58:58;98069.94;;;0.37;100.00
30081;BME280;16902;50.816;12.828;2023-12-07T16:04:00;98066.13;;;0.42;100.00
30081;BME280;16902;50.816;12.828;2023-12-07T16:09:03;98074.09;;;0.27;100.00
30081;BME280;16902;50.816;12.828;2023-12-07T16:14:05;98080.13;;;0.25;100.00
30081;BME280;16902;50.816;12.828;2023-12-07T16:19:08;98084.63;;;0.35;100.00
30081;BME280;16902;50.816;12.828;2023-12-07T16:24:11;98081.59;;;0.17;100.00
30081;BME280;16902;50.816;12.828;2023-12-07T16:29:13;98086.22;;;-0.01;100.00
30081;BME280;16902;50.816;12.828;2023-12-07T16:34:17;98086.59;;;-0.18;100.00
30081;BME280;16902;50.816;12.828;2023-12-07T16:39:19;98084.72;;;-0.29;100.00
30081;BME280;16902;50.816;12.828;2023-12-07T16:44:21;98081.66;;;-0.09;100.00
30081;BME280;16902;50.816;12.828;2023-12-07T16:49:23;98085.78;;;0.18;100.00
30081;BME280;16902;50.816;12.828;2023-12-07T16:54:27;98082.69;;;0.25;100.00
30081;BME280;16902;50.816;12.828;2023-12-07T16:59:29;98083.56;;;0.37;100.00
30081;BME280;16902;50.816;12.828;2023-12-07T17:04:31;98085.56;;;0.21;100.00
30081;BME280;16902;50.816;12.828;2023-12-07T17:09:33;98089.34;;;0.28;100.00
30081;BME280;16902;50.816;12.828;2023-12-07T17:14:35;98094.50;;;0.15;100.00
30081;BME280;16902;50.816;12.828;2023-12-07T17:19:37;98096.88;;;0.06;100.00
30081;BME280;16902;50.816;12.828;2023-12-07T17:24:51;98088.84;;;-0.14;100.00
30081;BME280;16902;50.816;12.828;2023-12-07T17:29:53;98086.59;;;-0.31;100.00
30081;BME280;16902;50.816;12.828;2023-12-07T17:34:57;98084.25;;;-0.47;100.00
30081;BME280;16902;50.816;12.828;2023-12-07T17:39:59;98082.69;;;-0.75;100.00
30081;BME280;16902;50.816;12.828;2023-12-07T17:45:01;98080.84;;;-0.86;100.00
30081;BME280;16902;50.816;12.828;2023-12-07T17:50:04;98069.47;;;-0.94;100.00
30081;BME280;16902;50.816;12.828;2023-12-07T17:55:06;98082.25;;;-0.94;100.00
30081;BME280;16902;50.816;12.828;2023-12-07T18:00:09;98075.94;;;-1.01;100.00
30081;BME280;16902;50.816;12.828;2023-12-07T18:05:11;98077.63;;;-1.02;100.00
30081;BME280;16902;50.816;12.828;2023-12-07T18:10:13;98087.44;;;-1.09;100.00
30081;BME280;16902;50.816;12.828;2023-12-07T18:15:15;98072.22;;;-1.10;100.00
30081;BME280;16902;50.816;12.828;2023-12-07T18:20:19;98073.66;;;-1.06;100.00
30081;BME280;16902;50.816;12.828;2023-12-07T18:25:21;98056.19;;;-0.99;100.00
30081;BME280;16902;50.816;12.828;2023-12-07T18:30:23;98043.59;;;-1.02;100.00
30081;BME280;16902;50.816;12.828;2023-12-07T18:35:25;98045.63;;;-1.08;100.00
30081;BME280;16902;50.816;12.828;2023-12-07T18:40:26;98046.34;;;-1.18;100.00
30081;BME280;16902;50.816;12.828;2023-12-07T18:45:30;98041.94;;;-1.29;100.00
30081;BME280;16902;50.816;12.828;2023-12-07T18:50:32;98039.56;;;-1.45;100.00
30081;BME280;16902;50.816;12.828;2023-12-07T18:55:34;98025.63;;;-1.53;100.00
30081;BME280;16902;50.816;12.828;2023-12-07T19:00:36;98018.09;;;-1.69;100.00
30081;BME280;16902;50.816;12.828;2023-12-07T19:05:38;98021.91;;;-1.89;100.00
30081;BME280;16902;50.816;12.828;2023-12-07T19:10:43;97994.34;;;-1.97;100.00
30081;BME280;16902;50.816;12.828;2023-12-07T19:15:45;97994.16;;;-2.08;100.00
30081;BME280;16902;50.816;12.828;2023-12-07T19:20:47;97986.25;;;-2.18;100.00
30081;BME280;16902;50.816;12.828;2023-12-07T19:25:49;97969.72;;;-2.25;100.00
30081;BME280;16902;50.816;12.828;2023-12-07T19:30:51;97971.28;;;-2.37;100.00
30081;BME280;16902;50.816;12.828;2023-12-07T19:35:54;97957.44;;;-2.47;100.00
30081;BME280;16902;50.816;12.828;2023-12-07T19:40:56;97949.09;;;-2.49;100.00
30081;BME280;16902;50.816;12.828;2023-12-07T19:45:58;97943.28;;;-2.51;100.00
30081;BME280;16902;50.816;12.828;2023-12-07T19:50:59;97947.91;;;-2.58;100.00
30081;BME280;16902;50.816;12.828;2023-12-07T19:56:02;97937.09;;;-2.61;100.00
30081;BME280;16902;50.816;12.828;2023-12-07T20:01:05;97925.47;;;-2.65;100.00
30081;BME280;16902;50.816;12.828;2023-12-07T20:06:08;97921.63;;;-2.72;100.00
30081;BME280;16902;50.816;12.828;2023-12-07T20:11:17;97922.28;;;-2.69;100.00
30081;BME280;16902;50.816;12.828;2023-12-07T20:16:20;97911.81;;;-2.64;100.00
30081;BME280;16902;50.816;12.828;2023-12-07T20:21:22;97910.72;;;-2.74;100.00
30081;BME280;16902;50.816;12.828;2023-12-07T20:26:24;97904.34;;;-2.81;100.00
30081;BME280;16902;50.816;12.828;2023-12-07T20:31:26;97901.63;;;-2.93;100.00
30081;BME280;16902;50.816;12.828;2023-12-07T20:36:28;97892.38;;;-2.94;100.00
30081;BME280;16902;50.816;12.828;2023-12-07T20:41:30;97888.75;;;-3.04;100.00
30081;BME280;16902;50.816;12.828;2023-12-07T20:46:33;97892.91;;;-3.17;100.00
30081;BME280;16902;50.816;12.828;2023-12-07T20:51:35;97881.66;;;-3.13;100.00
30081;BME280;16902;50.816;12.828;2023-12-07T20:56:37;97885.38;;;-3.04;100.00
30081;BME280;16902;50.816;12.828;2023-12-07T21:01:44;97886.19;;;-3.18;100.00
30081;BME280;16902;50.816;12.828;2023-12-07T21:06:46;97882.09;;;-3.21;100.00
30081;BME280;16902;50.816;12.828;2023-12-07T21:11:48;97867.09;;;-3.25;100.00
30081;BME280;16902;50.816;12.828;2023-12-07T21:16:52;97866.44;;;-3.29;100.00
30081;BME280;16902;50.816;12.828;2023-12-07T21:21:54;97850.53;;;-3.47;100.00
30081;BME280;16902;50.816;12.828;2023-12-07T21:26:55;97844.25;;;-3.55;100.00
30081;BME280;16902;50.816;12.828;2023-12-07T21:31:57;97835.16;;;-3.59;100.00
30081;BME280;16902;50.816;12.828;2023-12-07T21:36:59;97816.53;;;-3.60;100.00
30081;BME280;16902;50.816;12.828;2023-12-07T21:42:01;97818.25;;;-3.75;100.00
30081;BME280;16902;50.816;12.828;2023-12-07T21:47:03;97809.91;;;-3.77;100.00
30081;BME280;16902;50.816;12.828;2023-12-07T21:52:07;97814.53;;;-3.83;100.00
30081;BME280;16902;50.816;12.828;2023-12-07T21:57:09;97809.81;;;-3.61;100.00
30081;BME280;16902;50.816;12.828;2023-12-07T22:02:11;97811.28;;;-3.71;100.00
30081;BME280;16902;50.816;12.828;2023-12-07T22:07:13;97816.72;;;-3.63;100.00
30081;BME280;16902;50.816;12.828;2023-12-07T22:12:15;97832.88;;;-3.78;100.00
30081;BME280;16902;50.816;12.828;2023-12-07T22:17:17;97837.34;;;-3.82;100.00
30081;BME280;16902;50.816;12.828;2023-12-07T22:22:19;97837.78;;;-3.90;100.00
30081;BME280;16902;50.816;12.828;2023-12-07T22:27:21;97829.44;;;-4.07;100.00
30081;BME280;16902;50.816;12.828;2023-12-07T22:32:24;97829.25;;;-4.19;100.00
30081;BME280;16902;50.816;12.828;2023-12-07T22:37:26;97826.16;;;-4.24;100.00
30081;BME280;16902;50.816;12.828;2023-12-07T22:42:28;97815.13;;;-4.38;100.00
30081;BME280;16902;50.816;12.828;2023-12-07T22:47:30;97811.22;;;-4.44;100.00
30081;BME280;16902;50.816;12.828;2023-12-07T22:52:32;97810.63;;;-4.49;100.00
30081;BME280;16902;50.816;12.828;2023-12-07T22:57:35;97808.25;;;-4.52;100.00
30081;BME280;16902;50.816;12.828;2023-12-07T23:02:36;97788.28;;;-4.58;100.00
30081;BME280;16902;50.816;12.828;2023-12-07T23:07:38;97768.13;;;-4.61;100.00
30081;BME280;16902;50.816;12.828;2023-12-07T23:12:40;97768.38;;;-4.66;100.00
30081;BME280;16902;50.816;12.828;2023-12-07T23:17:42;97764.50;;;-4.57;100.00
30081;BME280;16902;50.816;12.828;2023-12-07T23:22:45;97759.53;;;-4.59;100.00
30081;BME280;16902;50.816;12.828;2023-12-07T23:27:47;97752.00;;;-4.76;100.00
30081;BME280;16902;50.816;12.828;2023-12-07T23:32:49;97747.84;;;-4.77;100.00
30081;BME280;16902;50.816;12.828;2023-12-07T23:37:51;97732.09;;;-4.84;100.00
30081;BME280;16902;50.816;12.828;2023-12-07T23:42:53;97710.34;;;-4.88;100.00
30081;BME280;16902;50.816;12.828;2023-12-07T23:47:55;97708.72;;;-5.05;100.00
30081;BME280;16902;50.816;12.828;2023-12-07T23:52:57;97697.75;;;-5.05;100.00
30081;BME280;16902;50.816;12.828;2023-12-07T23:57:58;97696.88;;;-5.20;100.00
